sensor_id;sensor_type;location;lat;lon;timestamp;pressure;altitude;pressure_sealevel;temperature;humidity
27805;BME280;15183;51.350;11.102;2022-10-16T00:01:30;99681.47;;;20.40;59.45
27805;BME280;15183;51.350;11.102;2022-10-16T00:03:59;99675.66;;;20.33;59.42
27805;BME280;15183;51.350;11.102;2022-10-16T00:06:27;99700.56;;;20.38;58.99
27805;BME280;15183;51.350;11.102;2022-10-16T00:08:55;99697.38;;;20.36;59.32
27805;BME280;15183;51.350;11.102;2022-10-16T00:11:25;99689.13;;;20.33;59.17
27805;BME280;15183;51.350;11.102;2022-10-16T00:13:58;99687.31;;;20.28;59.35
27805;BME280;15183;51.350;11.102;2022-10-16T00:16:25;99688.97;;;20.24;59.37
27805;BME280;15183;51.350;11.102;2022-10-16T00:18:53;99685.56;;;20.18;59.94
27805;BME280;15183;51.350;11.102;2022-10-16T00:21:25;99694.22;;;20.15;60.03
27805;BME280;15183;51.350;11.102;2022-10-16T00:23:56;99687.34;;;20.09;59.94
27805;BME280;15183;51.350;11.102;2022-10-16T00:26:23;99613.75;;;19.47;59.93
27805;BME280;15183;51.350;11.102;2022-10-16T00:28:51;99690.00;;;19.90;60.05
27805;BME280;15183;51.350;11.102;2022-10-16T00:31:20;99674.38;;;19.73;60.39
27805;BME280;15183;51.350;11.102;2022-10-16T00:33:47;99679.84;;;19.67;60.76
27805;BME280;15183;51.350;11.102;2022-10-16T00:36:19;99694.44;;;19.61;61.03
27805;BME280;15183;51.350;11.102;2022-10-16T00:38:46;99685.44;;;19.52;60.91
27805;BME280;15183;51.350;11.102;2022-10-16T00:41:16;99647.41;;;19.20;61.07
27805;BME280;15183;51.350;11.102;2022-10-16T00:43:56;99669.34;;;19.28;61.09
27805;BME280;15183;51.350;11.102;2022-10-16T00:46:41;99687.06;;;19.29;61.50
27805;BME280;15183;51.350;11.102;2022-10-16T00:49:10;99694.47;;;19.18;61.39
27805;BME280;15183;51.350;11.102;2022-10-16T00:51:50;99700.09;;;19.16;61.63
27805;BME280;15183;51.350;11.102;2022-10-16T00:54:22;99707.41;;;19.11;61.84
27805;BME280;15183;51.350;11.102;2022-10-16T00:56:50;99716.84;;;19.08;62.02
27805;BME280;15183;51.350;11.102;2022-10-16T00:59:25;99713.94;;;19.04;61.76
27805;BME280;15183;51.350;11.102;2022-10-16T01:01:54;99725.19;;;19.06;62.04
27805;BME280;15183;51.350;11.102;2022-10-16T01:04:21;99713.13;;;19.04;61.97
27805;BME280;15183;51.350;11.102;2022-10-16T01:12:54;99719.66;;;18.98;62.13
27805;BME280;15183;51.350;11.102;2022-10-16T01:15:56;99723.13;;;18.98;62.50
27805;BME280;15183;51.350;11.102;2022-10-16T01:21:06;99723.06;;;19.03;62.01
27805;BME280;15183;51.350;11.102;2022-10-16T01:29:24;99721.97;;;19.04;62.05
27805;BME280;15183;51.350;11.102;2022-10-16T01:32:01;99727.91;;;19.01;62.39
27805;BME280;15183;51.350;11.102;2022-10-16T01:34:38;99718.44;;;19.09;62.22
27805;BME280;15183;51.350;11.102;2022-10-16T01:37:13;99726.44;;;19.14;62.07
27805;BME280;15183;51.350;11.102;2022-10-16T01:39:45;99717.53;;;19.19;62.21
27805;BME280;15183;51.350;11.102;2022-10-16T01:42:27;99714.78;;;19.24;62.32
27805;BME280;15183;51.350;11.102;2022-10-16T01:44:56;99698.50;;;19.15;61.74
27805;BME280;15183;51.350;11.102;2022-10-16T01:47:25;99712.88;;;19.24;62.19
27805;BME280;15183;51.350;11.102;2022-10-16T01:49:53;99719.88;;;19.26;61.98
27805;BME280;15183;51.350;11.102;2022-10-16T01:52:24;99737.25;;;19.33;61.94
27805;BME280;15183;51.350;11.102;2022-10-16T01:54:54;99724.38;;;19.30;61.66
27805;BME280;15183;51.350;11.102;2022-10-16T01:57:24;99725.25;;;19.26;61.93
27805;BME280;15183;51.350;11.102;2022-10-16T01:59:56;99735.41;;;19.29;61.81
27805;BME280;15183;51.350;11.102;2022-10-16T02:02:27;99743.78;;;19.27;61.58
27805;BME280;15183;51.350;11.102;2022-10-16T02:05:34;99734.09;;;19.26;61.72
27805;BME280;15183;51.350;11.102;2022-10-16T02:08:04;99734.09;;;19.26;61.62
27805;BME280;15183;51.350;11.102;2022-10-16T02:10:31;99702.84;;;19.11;61.48
27805;BME280;15183;51.350;11.102;2022-10-16T02:13:22;99735.31;;;19.15;61.76
27805;BME280;15183;51.350;11.102;2022-10-16T02:15:50;99743.41;;;19.09;61.69
27805;BME280;15183;51.350;11.102;2022-10-16T02:18:17;99727.72;;;18.98;61.94
27805;BME280;15183;51.350;11.102;2022-10-16T02:20:51;99750.25;;;18.97;61.52
27805;BME280;15183;51.350;11.102;2022-10-16T02:24:26;99763.47;;;18.88;61.44
27805;BME280;15183;51.350;11.102;2022-10-16T02:29:16;99745.88;;;18.71;62.49
27805;BME280;15183;51.350;11.102;2022-10-16T02:31:48;99745.09;;;18.71;61.81
27805;BME280;15183;51.350;11.102;2022-10-16T02:34:16;99754.75;;;18.72;62.25
27805;BME280;15183;51.350;11.102;2022-10-16T02:36:45;99755.53;;;18.72;62.05
27805;BME280;15183;51.350;11.102;2022-10-16T02:39:15;99742.75;;;18.64;61.97
27805;BME280;15183;51.350;11.102;2022-10-16T02:41:43;99762.59;;;18.63;62.02
27805;BME280;15183;51.350;11.102;2022-10-16T02:44:09;99743.09;;;18.57;62.77
27805;BME280;15183;51.350;11.102;2022-10-16T02:46:36;99764.00;;;18.55;62.56
27805;BME280;15183;51.350;11.102;2022-10-16T02:49:02;99754.13;;;18.50;62.09
27805;BME280;15183;51.350;11.102;2022-10-16T02:51:29;99768.84;;;18.53;62.19
27805;BME280;15183;51.350;11.102;2022-10-16T02:53:55;99769.94;;;18.52;62.18
27805;BME280;15183;51.350;11.102;2022-10-16T02:56:22;99755.72;;;18.51;61.96
27805;BME280;15183;51.350;11.102;2022-10-16T02:58:48;99764.25;;;18.59;62.29
27805;BME280;15183;51.350;11.102;2022-10-16T03:01:15;99755.13;;;18.60;61.70
27805;BME280;15183;51.350;11.102;2022-10-16T03:03:43;99746.28;;;18.59;62.34
27805;BME280;15183;51.350;11.102;2022-10-16T03:06:09;99740.91;;;18.59;61.80
27805;BME280;15183;51.350;11.102;2022-10-16T03:08:36;99754.59;;;18.58;62.14
27805;BME280;15183;51.350;11.102;2022-10-16T03:11:02;99761.38;;;18.50;62.24
27805;BME280;15183;51.350;11.102;2022-10-16T03:13:29;99753.69;;;18.38;62.24
27805;BME280;15183;51.350;11.102;2022-10-16T03:15:55;99740.91;;;18.25;62.48
27805;BME280;15183;51.350;11.102;2022-10-16T03:18:22;99742.50;;;18.26;62.20
27805;BME280;15183;51.350;11.102;2022-10-16T03:20:48;99744.44;;;18.20;62.28
27805;BME280;15183;51.350;11.102;2022-10-16T03:23:15;99744.97;;;18.17;62.58
27805;BME280;15183;51.350;11.102;2022-10-16T03:25:41;99744.22;;;18.11;63.09
27805;BME280;15183;51.350;11.102;2022-10-16T03:28:08;99747.19;;;18.04;62.89
27805;BME280;15183;51.350;11.102;2022-10-16T03:30:34;99757.94;;;18.04;63.15
27805;BME280;15183;51.350;11.102;2022-10-16T03:33:01;99771.56;;;18.13;63.08
27805;BME280;15183;51.350;11.102;2022-10-16T03:35:27;99758.94;;;18.14;63.33
27805;BME280;15183;51.350;11.102;2022-10-16T03:37:54;99766.41;;;18.22;63.42
27805;BME280;15183;51.350;11.102;2022-10-16T03:40:20;99758.66;;;18.15;63.23
27805;BME280;15183;51.350;11.102;2022-10-16T03:42:47;99777.09;;;18.27;63.11
27805;BME280;15183;51.350;11.102;2022-10-16T03:45:13;99764.28;;;18.19;63.01
27805;BME280;15183;51.350;11.102;2022-10-16T03:47:40;99763.16;;;18.25;62.84
27805;BME280;15183;51.350;11.102;2022-10-16T03:50:07;99762.56;;;18.33;62.80
27805;BME280;15183;51.350;11.102;2022-10-16T03:52:34;99759.84;;;18.39;62.36
27805;BME280;15183;51.350;11.102;2022-10-16T03:55:01;99776.47;;;18.41;62.46
27805;BME280;15183;51.350;11.102;2022-10-16T03:57:27;99769.25;;;18.36;62.01
27805;BME280;15183;51.350;11.102;2022-10-16T03:59:54;99765.22;;;18.39;62.49
27805;BME280;15183;51.350;11.102;2022-10-16T04:02:20;99776.47;;;18.41;62.59
27805;BME280;15183;51.350;11.102;2022-10-16T04:04:47;99788.75;;;18.47;61.93
27805;BME280;15183;51.350;11.102;2022-10-16T04:07:13;99786.41;;;18.40;62.43
27805;BME280;15183;51.350;11.102;2022-10-16T04:09:40;99790.91;;;18.45;62.25
27805;BME280;15183;51.350;11.102;2022-10-16T04:12:06;99792.56;;;18.41;62.30
27805;BME280;15183;51.350;11.102;2022-10-16T04:14:36;99791.53;;;18.36;62.22
27805;BME280;15183;51.350;11.102;2022-10-16T04:17:02;99804.38;;;18.40;62.16
27805;BME280;15183;51.350;11.102;2022-10-16T04:19:29;99788.91;;;18.26;62.07
27805;BME280;15183;51.350;11.102;2022-10-16T04:21:55;99818.59;;;18.40;62.15
27805;BME280;15183;51.350;11.102;2022-10-16T04:24:22;99818.59;;;18.35;62.08
27805;BME280;15183;51.350;11.102;2022-10-16T04:26:48;99836.00;;;18.43;62.45
27805;BME280;15183;51.350;11.102;2022-10-16T04:29:15;99823.66;;;18.42;62.60
27805;BME280;15183;51.350;11.102;2022-10-16T04:31:41;99821.00;;;18.42;62.33
27805;BME280;15183;51.350;11.102;2022-10-16T04:34:08;99847.25;;;18.45;62.87
27805;BME280;15183;51.350;11.102;2022-10-16T04:36:35;99843.22;;;18.47;62.60
27805;BME280;15183;51.350;11.102;2022-10-16T04:39:01;99837.31;;;18.50;62.87
27805;BME280;15183;51.350;11.102;2022-10-16T04:41:27;99834.31;;;18.52;62.93
27805;BME280;15183;51.350;11.102;2022-10-16T04:43:54;99830.56;;;18.58;62.57
27805;BME280;15183;51.350;11.102;2022-10-16T04:46:20;99826.50;;;18.61;62.58
27805;BME280;15183;51.350;11.102;2022-10-16T04:48:47;99820.03;;;18.62;62.50
27805;BME280;15183;51.350;11.102;2022-10-16T04:51:13;99812.00;;;18.62;62.71
27805;BME280;15183;51.350;11.102;2022-10-16T04:53:40;99830.19;;;18.70;62.66
27805;BME280;15183;51.350;11.102;2022-10-16T04:56:06;99838.22;;;18.75;62.14
27805;BME280;15183;51.350;11.102;2022-10-16T04:58:33;99843.28;;;18.77;62.46
27805;BME280;15183;51.350;11.102;2022-10-16T05:00:59;99841.13;;;18.79;62.44
27805;BME280;15183;51.350;11.102;2022-10-16T05:03:26;99851.28;;;18.82;62.44
27805;BME280;15183;51.350;11.102;2022-10-16T05:05:52;99844.31;;;18.81;62.49
27805;BME280;15183;51.350;11.102;2022-10-16T05:08:19;99854.75;;;18.88;62.67
27805;BME280;15183;51.350;11.102;2022-10-16T05:10:45;99840.84;;;18.80;62.18
27805;BME280;15183;51.350;11.102;2022-10-16T05:13:12;99855.28;;;18.90;62.20
27805;BME280;15183;51.350;11.102;2022-10-16T05:15:38;99834.09;;;18.83;62.34
27805;BME280;15183;51.350;11.102;2022-10-16T05:18:05;99855.75;;;18.97;62.50
27805;BME280;15183;51.350;11.102;2022-10-16T05:20:31;99858.16;;;19.04;62.26
27805;BME280;15183;51.350;11.102;2022-10-16T05:22:58;99855.50;;;18.99;62.36
27805;BME280;15183;51.350;11.102;2022-10-16T05:25:24;99859.41;;;19.12;62.06
27805;BME280;15183;51.350;11.102;2022-10-16T05:27:51;99833.75;;;18.95;61.96
27805;BME280;15183;51.350;11.102;2022-10-16T05:30:18;99861.25;;;19.16;62.50
27805;BME280;15183;51.350;11.102;2022-10-16T05:32:50;99880.53;;;19.23;62.05
27805;BME280;15183;51.350;11.102;2022-10-16T05:35:18;99870.28;;;19.26;62.44
27805;BME280;15183;51.350;11.102;2022-10-16T05:37:45;99866.47;;;19.32;62.18
27805;BME280;15183;51.350;11.102;2022-10-16T05:40:12;99873.41;;;19.38;62.07
27805;BME280;15183;51.350;11.102;2022-10-16T05:42:40;99866.41;;;19.42;61.81
27805;BME280;15183;51.350;11.102;2022-10-16T05:45:09;99870.09;;;19.46;61.81
27805;BME280;15183;51.350;11.102;2022-10-16T05:47:36;99869.53;;;19.49;61.43
27805;BME280;15183;51.350;11.102;2022-10-16T05:50:03;99860.66;;;19.49;61.83
27805;BME280;15183;51.350;11.102;2022-10-16T05:52:33;99849.19;;;19.43;61.51
27805;BME280;15183;51.350;11.102;2022-10-16T05:55:03;99865.38;;;19.62;61.41
27805;BME280;15183;51.350;11.102;2022-10-16T05:57:30;99839.97;;;19.49;61.80
27805;BME280;15183;51.350;11.102;2022-10-16T05:59:57;99853.25;;;19.65;61.27
27805;BME280;15183;51.350;11.102;2022-10-16T06:02:24;99863.16;;;19.70;61.32
27805;BME280;15183;51.350;11.102;2022-10-16T06:04:53;99852.16;;;19.66;61.21
27805;BME280;15183;51.350;11.102;2022-10-16T06:07:21;99864.28;;;19.63;61.46
27805;BME280;15183;51.350;11.102;2022-10-16T06:09:51;99870.44;;;19.64;61.20
27805;BME280;15183;51.350;11.102;2022-10-16T06:12:19;99856.22;;;19.63;61.58
27805;BME280;15183;51.350;11.102;2022-10-16T06:14:46;99840.03;;;19.69;61.69
27805;BME280;15183;51.350;11.102;2022-10-16T06:17:15;99809.56;;;19.54;61.31
27805;BME280;15183;51.350;11.102;2022-10-16T06:19:42;99834.31;;;19.75;61.03
27805;BME280;15183;51.350;11.102;2022-10-16T06:22:08;99841.31;;;19.76;61.45
27805;BME280;15183;51.350;11.102;2022-10-16T06:24:35;99837.47;;;19.83;61.22
27805;BME280;15183;51.350;11.102;2022-10-16T06:27:03;99820.81;;;19.80;60.97
27805;BME280;15183;51.350;11.102;2022-10-16T06:29:30;99835.75;;;19.92;61.44
27805;BME280;15183;51.350;11.102;2022-10-16T06:31:56;99832.50;;;19.95;61.30
27805;BME280;15183;51.350;11.102;2022-10-16T06:34:23;99858.81;;;19.98;61.18
27805;BME280;15183;51.350;11.102;2022-10-16T06:36:49;99881.91;;;19.99;60.95
27805;BME280;15183;51.350;11.102;2022-10-16T06:39:16;99899.38;;;20.02;61.17
27805;BME280;15183;51.350;11.102;2022-10-16T06:41:43;99898.28;;;20.03;60.88
27805;BME280;15183;51.350;11.102;2022-10-16T06:44:09;99887.94;;;19.91;60.80
27805;BME280;15183;51.350;11.102;2022-10-16T06:46:36;99920.59;;;20.03;60.95
27805;BME280;15183;51.350;11.102;2022-10-16T06:49:02;99915.72;;;20.05;60.87
27805;BME280;15183;51.350;11.102;2022-10-16T06:51:29;99914.38;;;20.08;60.88
27805;BME280;15183;51.350;11.102;2022-10-16T06:53:58;99930.09;;;20.20;60.40
27805;BME280;15183;51.350;11.102;2022-10-16T06:56:27;99934.31;;;20.26;60.63
27805;BME280;15183;51.350;11.102;2022-10-16T06:58:55;99940.16;;;20.33;60.42
27805;BME280;15183;51.350;11.102;2022-10-16T07:01:25;99939.00;;;20.39;60.52
27805;BME280;15183;51.350;11.102;2022-10-16T07:03:53;99942.16;;;20.47;60.51
27805;BME280;15183;51.350;11.102;2022-10-16T07:06:22;99950.44;;;20.50;60.09
27805;BME280;15183;51.350;11.102;2022-10-16T07:08:50;99945.88;;;20.51;60.31
27805;BME280;15183;51.350;11.102;2022-10-16T07:11:21;99967.31;;;20.56;59.90
27805;BME280;15183;51.350;11.102;2022-10-16T07:13:50;99973.72;;;20.60;59.96
27805;BME280;15183;51.350;11.102;2022-10-16T07:16:20;99946.88;;;20.55;59.85
27805;BME280;15183;51.350;11.102;2022-10-16T07:18:47;99950.00;;;20.62;59.87
27805;BME280;15183;51.350;11.102;2022-10-16T07:21:18;99958.25;;;20.71;60.11
27805;BME280;15183;51.350;11.102;2022-10-16T07:23:52;99970.81;;;20.76;60.15
27805;BME280;15183;51.350;11.102;2022-10-16T07:26:18;99971.00;;;20.85;59.76
27805;BME280;15183;51.350;11.102;2022-10-16T07:28:45;99969.84;;;20.91;59.77
27805;BME280;15183;51.350;11.102;2022-10-16T07:31:14;99959.28;;;20.94;59.92
27805;BME280;15183;51.350;11.102;2022-10-16T07:33:42;99972.00;;;21.08;59.81
27805;BME280;15183;51.350;11.102;2022-10-16T07:36:12;99974.53;;;21.18;59.65
27805;BME280;15183;51.350;11.102;2022-10-16T07:38:38;99984.41;;;21.42;59.13
27805;BME280;15183;51.350;11.102;2022-10-16T07:41:07;99991.22;;;21.53;59.38
27805;BME280;15183;51.350;11.102;2022-10-16T07:43:35;99984.09;;;21.63;58.85
27805;BME280;15183;51.350;11.102;2022-10-16T07:46:02;99993.81;;;21.78;58.53
27805;BME280;15183;51.350;11.102;2022-10-16T07:48:31;99992.84;;;21.88;58.10
27805;BME280;15183;51.350;11.102;2022-10-16T07:51:03;100009.03;;;22.02;57.83
27805;BME280;15183;51.350;11.102;2022-10-16T07:53:32;100018.25;;;22.15;57.86
27805;BME280;15183;51.350;11.102;2022-10-16T07:56:04;100004.75;;;22.15;57.73
27805;BME280;15183;51.350;11.102;2022-10-16T07:58:33;100025.38;;;22.38;57.62
27805;BME280;15183;51.350;11.102;2022-10-16T08:01:07;100015.59;;;22.57;57.56
27805;BME280;15183;51.350;11.102;2022-10-16T08:03:34;100009.63;;;22.68;57.22
27805;BME280;15183;51.350;11.102;2022-10-16T08:06:01;100001.94;;;22.76;57.02
27805;BME280;15183;51.350;11.102;2022-10-16T08:08:28;99987.72;;;22.84;57.11
27805;BME280;15183;51.350;11.102;2022-10-16T08:10:55;99983.47;;;22.92;56.90
27805;BME280;15183;51.350;11.102;2022-10-16T08:13:22;99993.06;;;22.98;56.28
27805;BME280;15183;51.350;11.102;2022-10-16T08:15:49;100009.53;;;23.10;56.63
27805;BME280;15183;51.350;11.102;2022-10-16T08:18:16;100024.84;;;23.15;55.94
27805;BME280;15183;51.350;11.102;2022-10-16T08:20:43;100019.44;;;23.15;55.53
27805;BME280;15183;51.350;11.102;2022-10-16T08:23:11;100028.53;;;23.19;55.38
27805;BME280;15183;51.350;11.102;2022-10-16T08:25:40;100037.44;;;23.20;55.31
27805;BME280;15183;51.350;11.102;2022-10-16T08:28:10;100023.34;;;23.09;55.09
27805;BME280;15183;51.350;11.102;2022-10-16T08:30:36;100047.47;;;23.19;55.41
27805;BME280;15183;51.350;11.102;2022-10-16T08:33:03;100034.25;;;23.18;55.19
27805;BME280;15183;51.350;11.102;2022-10-16T08:35:30;100040.25;;;23.29;55.18
27805;BME280;15183;51.350;11.102;2022-10-16T08:37:56;100017.41;;;23.21;54.94
27805;BME280;15183;51.350;11.102;2022-10-16T08:40:27;100039.63;;;23.32;54.22
27805;BME280;15183;51.350;11.102;2022-10-16T08:43:35;100035.03;;;23.32;54.39
27805;BME280;15183;51.350;11.102;2022-10-16T08:46:58;100038.22;;;23.34;54.39
27805;BME280;15183;51.350;11.102;2022-10-16T08:49:30;100043.56;;;23.48;54.67
27805;BME280;15183;51.350;11.102;2022-10-16T08:51:57;99981.97;;;23.22;54.47
27805;BME280;15183;51.350;11.102;2022-10-16T08:54:38;100014.41;;;23.68;53.74
27805;BME280;15183;51.350;11.102;2022-10-16T08:57:19;100059.03;;;24.02;53.53
27805;BME280;15183;51.350;11.102;2022-10-16T08:59:46;100067.59;;;24.27;53.40
27805;BME280;15183;51.350;11.102;2022-10-16T09:02:34;100052.06;;;24.50;52.99
27805;BME280;15183;51.350;11.102;2022-10-16T09:05:28;100060.41;;;24.71;53.16
27805;BME280;15183;51.350;11.102;2022-10-16T09:08:27;100077.69;;;24.93;52.70
27805;BME280;15183;51.350;11.102;2022-10-16T09:16:58;100074.50;;;25.00;51.94
27805;BME280;15183;51.350;11.102;2022-10-16T09:19:38;100078.34;;;24.99;51.94
27805;BME280;15183;51.350;11.102;2022-10-16T09:22:14;100076.06;;;24.92;51.89
27805;BME280;15183;51.350;11.102;2022-10-16T09:24:41;100081.69;;;24.96;51.22
27805;BME280;15183;51.350;11.102;2022-10-16T09:27:13;100088.53;;;24.84;51.11
27805;BME280;15183;51.350;11.102;2022-10-16T09:29:40;100081.31;;;24.80;51.56
27805;BME280;15183;51.350;11.102;2022-10-16T09:32:19;100088.50;;;24.76;51.40
27805;BME280;15183;51.350;11.102;2022-10-16T09:34:54;100098.00;;;24.73;51.46
27805;BME280;15183;51.350;11.102;2022-10-16T09:37:23;100104.53;;;24.72;51.31
27805;BME280;15183;51.350;11.102;2022-10-16T09:39:54;100101.34;;;24.70;51.61
27805;BME280;15183;51.350;11.102;2022-10-16T09:42:35;100103.16;;;24.75;51.58
27805;BME280;15183;51.350;11.102;2022-10-16T09:45:03;100117.03;;;24.82;51.57
27805;BME280;15183;51.350;11.102;2022-10-16T09:47:31;100113.03;;;24.79;51.56
27805;BME280;15183;51.350;11.102;2022-10-16T09:52:47;100123.41;;;24.77;51.22
27805;BME280;15183;51.350;11.102;2022-10-16T09:55:18;100124.84;;;24.75;50.95
27805;BME280;15183;51.350;11.102;2022-10-16T09:57:54;100126.81;;;24.60;50.90
27805;BME280;15183;51.350;11.102;2022-10-16T10:00:23;100141.00;;;24.57;51.09
27805;BME280;15183;51.350;11.102;2022-10-16T10:02:50;100135.38;;;24.45;51.20
27805;BME280;15183;51.350;11.102;2022-10-16T10:05:25;100135.94;;;24.33;51.45
27805;BME280;15183;51.350;11.102;2022-10-16T10:07:58;100138.13;;;24.22;51.46
27805;BME280;15183;51.350;11.102;2022-10-16T10:10:29;100136.78;;;24.10;51.91
27805;BME280;15183;51.350;11.102;2022-10-16T10:12:56;100148.72;;;24.09;51.97
27805;BME280;15183;51.350;11.102;2022-10-16T10:15:24;100147.94;;;24.09;51.75
27805;BME280;15183;51.350;11.102;2022-10-16T10:17:56;100151.91;;;24.11;51.61
27805;BME280;15183;51.350;11.102;2022-10-16T10:20:31;100140.44;;;24.06;51.55
27805;BME280;15183;51.350;11.102;2022-10-16T10:23:01;100148.72;;;24.09;51.91
27805;BME280;15183;51.350;11.102;2022-10-16T10:34:15;100153.72;;;24.16;52.38
27805;BME280;15183;51.350;11.102;2022-10-16T10:36:55;100164.22;;;24.18;52.12
27805;BME280;15183;51.350;11.102;2022-10-16T10:39:32;100151.97;;;24.20;52.13
27805;BME280;15183;51.350;11.102;2022-10-16T10:42:35;100165.44;;;24.34;52.28
27805;BME280;15183;51.350;11.102;2022-10-16T10:45:28;100169.81;;;24.44;52.06
27805;BME280;15183;51.350;11.102;2022-10-16T10:51:01;100158.19;;;24.52;52.06
27805;BME280;15183;51.350;11.102;2022-10-16T11:01:48;100160.78;;;24.57;51.41
27805;BME280;15183;51.350;11.102;2022-10-16T11:04:55;100158.22;;;24.61;51.60
27805;BME280;15183;51.350;11.102;2022-10-16T11:07:34;100150.75;;;24.67;51.69
27805;BME280;15183;51.350;11.102;2022-10-16T11:10:24;100149.97;;;24.66;52.26
27805;BME280;15183;51.350;11.102;2022-10-16T11:13:10;100145.19;;;24.72;51.08
27805;BME280;15183;51.350;11.102;2022-10-16T11:15:43;100148.59;;;24.78;50.85
27805;BME280;15183;51.350;11.102;2022-10-16T11:18:25;100155.47;;;24.84;50.69
27805;BME280;15183;51.350;11.102;2022-10-16T11:21:04;100144.16;;;24.82;50.43
27805;BME280;15183;51.350;11.102;2022-10-16T11:23:51;100152.09;;;24.78;50.17
27805;BME280;15183;51.350;11.102;2022-10-16T11:26:25;100159.44;;;24.78;50.35
27805;BME280;15183;51.350;11.102;2022-10-16T11:28:55;100153.94;;;24.69;49.80
27805;BME280;15183;51.350;11.102;2022-10-16T11:31:46;100165.13;;;24.67;49.88
27805;BME280;15183;51.350;11.102;2022-10-16T11:34:43;100168.09;;;24.57;50.46
27805;BME280;15183;51.350;11.102;2022-10-16T11:37:42;100168.72;;;24.54;49.87
27805;BME280;15183;51.350;11.102;2022-10-16T11:40:31;100154.59;;;24.34;51.15
27805;BME280;15183;51.350;11.102;2022-10-16T11:43:26;100158.44;;;24.33;50.29
27805;BME280;15183;51.350;11.102;2022-10-16T11:45:56;100147.19;;;24.17;50.15
27805;BME280;15183;51.350;11.102;2022-10-16T11:48:41;100161.56;;;24.26;49.90
27805;BME280;15183;51.350;11.102;2022-10-16T11:51:39;100160.03;;;24.11;50.30
27805;BME280;15183;51.350;11.102;2022-10-16T11:57:00;100152.19;;;24.01;49.96
27805;BME280;15183;51.350;11.102;2022-10-16T11:59:55;100154.75;;;24.06;49.92
27805;BME280;15183;51.350;11.102;2022-10-16T12:02:56;100160.91;;;23.98;50.80
27805;BME280;15183;51.350;11.102;2022-10-16T12:08:16;100155.59;;;24.16;49.62
27805;BME280;15183;51.350;11.102;2022-10-16T12:10:47;100150.53;;;24.23;49.36
27805;BME280;15183;51.350;11.102;2022-10-16T12:16:21;100140.94;;;24.39;49.56
27805;BME280;15183;51.350;11.102;2022-10-16T12:18:49;100152.31;;;24.59;48.71
27805;BME280;15183;51.350;11.102;2022-10-16T12:21:17;100152.91;;;24.79;48.37
27805;BME280;15183;51.350;11.102;2022-10-16T12:23:53;100155.53;;;25.02;48.60
27805;BME280;15183;51.350;11.102;2022-10-16T12:26:29;100152.81;;;25.10;48.09
27805;BME280;15183;51.350;11.102;2022-10-16T12:31:46;100153.34;;;25.39;47.57
27805;BME280;15183;51.350;11.102;2022-10-16T12:34:41;100152.25;;;25.49;47.39
27805;BME280;15183;51.350;11.102;2022-10-16T12:37:15;100153.69;;;25.55;47.83
27805;BME280;15183;51.350;11.102;2022-10-16T12:39:47;100154.50;;;25.55;47.03
27805;BME280;15183;51.350;11.102;2022-10-16T12:42:34;100157.22;;;25.55;47.56
27805;BME280;15183;51.350;11.102;2022-10-16T12:45:01;100150.66;;;25.56;47.04
27805;BME280;15183;51.350;11.102;2022-10-16T12:49:57;100162.94;;;25.63;46.87
27805;BME280;15183;51.350;11.102;2022-10-16T12:52:38;100151.44;;;25.57;47.14
27805;BME280;15183;51.350;11.102;2022-10-16T12:55:15;100162.66;;;25.64;46.76
27805;BME280;15183;51.350;11.102;2022-10-16T13:00:57;100141.88;;;25.60;46.81
27805;BME280;15183;51.350;11.102;2022-10-16T13:06:25;100160.91;;;25.77;47.28
27805;BME280;15183;51.350;11.102;2022-10-16T13:25:36;100173.13;;;26.10;46.30
27805;BME280;15183;51.350;11.102;2022-10-16T13:28:09;100175.41;;;26.17;46.21
27805;BME280;15183;51.350;11.102;2022-10-16T13:30:41;100191.34;;;26.27;45.63
27805;BME280;15183;51.350;11.102;2022-10-16T13:33:32;100187.88;;;26.18;45.79
27805;BME280;15183;51.350;11.102;2022-10-16T13:36:01;100199.34;;;26.06;45.56
27805;BME280;15183;51.350;11.102;2022-10-16T13:38:34;100196.97;;;25.95;45.62
27805;BME280;15183;51.350;11.102;2022-10-16T13:41:12;100204.59;;;25.93;45.84
27805;BME280;15183;51.350;11.102;2022-10-16T13:43:46;100210.53;;;25.86;45.86
27805;BME280;15183;51.350;11.102;2022-10-16T13:46:20;100216.44;;;25.80;45.92
27805;BME280;15183;51.350;11.102;2022-10-16T13:48:58;100220.75;;;25.72;46.09
27805;BME280;15183;51.350;11.102;2022-10-16T13:51:25;100227.94;;;25.68;46.31
27805;BME280;15183;51.350;11.102;2022-10-16T13:53:54;100228.25;;;25.66;46.18
27805;BME280;15183;51.350;11.102;2022-10-16T13:56:24;100222.66;;;25.63;45.86
27805;BME280;15183;51.350;11.102;2022-10-16T13:59:03;100217.69;;;25.56;46.03
27805;BME280;15183;51.350;11.102;2022-10-16T14:01:34;100228.09;;;25.63;46.24
27805;BME280;15183;51.350;11.102;2022-10-16T14:04:08;100223.78;;;25.62;45.83
27805;BME280;15183;51.350;11.102;2022-10-16T14:06:36;100228.25;;;25.57;46.00
27805;BME280;15183;51.350;11.102;2022-10-16T14:11:49;100232.50;;;25.41;46.27
27805;BME280;15183;51.350;11.102;2022-10-16T14:14:21;100233.75;;;25.35;46.50
27805;BME280;15183;51.350;11.102;2022-10-16T14:16:48;100232.16;;;25.25;46.21
27805;BME280;15183;51.350;11.102;2022-10-16T14:19:28;100242.66;;;25.26;46.30
27805;BME280;15183;51.350;11.102;2022-10-16T14:22:14;100240.78;;;25.27;46.34
27805;BME280;15183;51.350;11.102;2022-10-16T14:24:42;100237.56;;;25.25;46.65
27805;BME280;15183;51.350;11.102;2022-10-16T14:27:33;100243.63;;;25.31;46.53
27805;BME280;15183;51.350;11.102;2022-10-16T14:30:17;100243.63;;;25.31;46.58
27805;BME280;15183;51.350;11.102;2022-10-16T14:32:59;100239.03;;;25.31;46.43
27805;BME280;15183;51.350;11.102;2022-10-16T14:35:36;100242.84;;;25.30;46.03